Time;durP1;ratioP1;P1;durP2;ratioP2;P2;SDS_P1;SDS_P2;PMS_P1;PMS_P2;Temp;Humidity;BMP_temperature;BMP_pressure;BME280_temperature;BME280_humidity;BME280_pressure;Samples;Min_cycle;Max_cycle;Signal;HPM_P1;HPM_P2
2023/09/12 00:02:09;;;;;;;20.43;11.23;;;22.80;99.90;;;;;;7294034;19;20541;-77
2023/09/12 00:04:35;;;;;;;19.47;11.40;;;22.80;99.90;;;;;;7290894;19;20186;-79
2023/09/12 00:07:03;;;;;;;19.87;12.40;;;22.70;99.90;;;;;;7271513;19;20295;-80
2023/09/12 00:09:29;;;;;;;21.73;12.23;;;22.70;99.90;;;;;;7294481;19;20229;-79
2023/09/12 00:11:57;;;;;;;17.90;12.67;;;22.60;99.90;;;;;;7289376;19;20189;-77
2023/09/12 00:14:23;;;;;;;22.27;12.97;;;22.40;99.90;;;;;;7257037;19;20676;-78
2023/09/12 00:16:51;;;;;;;26.33;13.77;;;22.20;99.90;;;;;;7298892;19;20213;-79
2023/09/12 00:19:18;;;;;;;21.67;13.47;;;22.10;99.90;;;;;;7318420;19;20210;-76
2023/09/12 00:21:45;;;;;;;22.20;13.23;;;22.10;99.90;;;;;;7318366;19;20253;-77
2023/09/12 00:24:12;;;;;;;18.17;12.27;;;22.10;99.90;;;;;;7309259;19;20218;-77
2023/09/12 00:26:46;;;;;;;20.77;12.43;;;22.10;99.90;;;;;;7286105;19;20201;-77
2023/09/12 00:29:13;;;;;;;21.93;14.17;;;22.00;99.90;;;;;;7314453;19;20197;-77
2023/09/12 00:31:50;;;;;;;24.03;14.80;;;22.10;99.90;;;;;;7301037;19;20220;-77
2023/09/12 00:34:18;;;;;;;24.93;14.97;;;22.10;99.90;;;;;;7267105;19;20189;-76
2023/09/12 00:36:51;;;;;;;24.13;14.23;;;22.20;99.90;;;;;;7301275;19;20177;-79
2023/09/12 00:39:19;;;;;;;23.10;13.67;;;22.10;99.90;;;;;;7327857;19;20196;-77
2023/09/12 00:41:45;;;;;;;21.77;13.63;;;22.00;99.90;;;;;;7301071;19;20293;-79
2023/09/12 00:44:19;;;;;;;22.73;13.37;;;21.90;99.90;;;;;;7292755;19;20205;-80
2023/09/12 00:46:50;;;;;;;24.03;14.60;;;21.70;99.90;;;;;;7327302;19;20212;-77
2023/09/12 00:49:18;;;;;;;19.47;13.33;;;21.60;99.90;;;;;;7285147;19;20192;-77
2023/09/12 00:51:46;;;;;;;25.27;14.47;;;21.70;99.90;;;;;;7327202;19;20228;-79
2023/09/12 00:54:14;;;;;;;25.50;14.93;;;21.70;99.90;;;;;;7299312;19;20265;-76
2023/09/12 00:56:43;;;;;;;25.50;13.77;;;21.70;99.90;;;;;;7303672;19;20643;-78
2023/09/12 00:59:14;;;;;;;22.03;14.17;;;21.80;99.90;;;;;;7261636;19;20727;-79
2023/09/12 01:01:42;;;;;;;22.00;13.47;;;21.80;99.90;;;;;;7304591;19;20221;-79
2023/09/12 01:04:14;;;;;;;24.47;16.07;;;21.90;99.90;;;;;;7306641;19;20193;-79
2023/09/12 01:06:42;;;;;;;24.37;15.57;;;21.90;99.90;;;;;;7305844;19;20229;-79
2023/09/12 01:09:12;;;;;;;26.47;15.43;;;21.80;99.90;;;;;;7307139;19;20194;-76
2023/09/12 01:11:40;;;;;;;25.77;15.70;;;21.80;99.90;;;;;;7304496;19;20213;-77
2023/09/12 01:14:07;;;;;;;27.60;18.23;;;21.80;99.90;;;;;;7308705;19;20204;-79
2023/09/12 01:16:35;;;;;;;28.23;16.97;;;21.80;99.90;;;;;;7296462;19;20213;-78
2023/09/12 01:19:02;;;;;;;32.27;18.07;;;21.90;99.90;;;;;;7304524;19;20265;-76
2023/09/12 01:21:45;;;;;;;28.43;18.27;;;21.90;99.90;;;;;;7304145;19;20541;-78
2023/09/12 01:24:31;;;;;;;25.90;17.03;;;21.90;99.90;;;;;;7307237;19;20181;-78
2023/09/12 01:27:50;;;;;;;23.77;16.27;;;22.00;99.90;;;;;;7203142;19;2004421;-78
2023/09/12 01:30:21;;;;;;;29.10;17.53;;;22.10;99.90;;;;;;7155075;19;2006042;-78
2023/09/12 01:32:51;;;;;;;27.50;17.93;;;22.00;99.90;;;;;;7300512;19;20200;-78
2023/09/12 01:35:18;;;;;;;28.40;17.53;;;22.00;99.90;;;;;;7302662;19;20195;-79
2023/09/12 01:37:46;;;;;;;30.70;18.57;;;22.10;99.90;;;;;;7322866;19;20184;-80
2023/09/12 01:40:13;;;;;;;25.00;16.23;;;22.10;99.90;;;;;;7307461;19;20200;-76
2023/09/12 01:42:49;;;;;;;23.93;14.90;;;22.10;99.90;;;;;;7303540;19;20189;-76
2023/09/12 01:45:23;;;;;;;21.00;14.73;;;22.00;99.90;;;;;;7304719;19;20188;-78
2023/09/12 01:47:51;;;;;;;24.77;14.83;;;22.00;99.90;;;;;;7284100;19;20188;-77
2023/09/12 01:50:19;;;;;;;25.50;14.13;;;22.10;99.90;;;;;;7306266;19;20181;-76
2023/09/12 01:52:47;;;;;;;27.37;15.87;;;22.10;99.90;;;;;;7287601;19;20177;-76
2023/09/12 01:55:16;;;;;;;36.57;24.53;;;22.20;99.90;;;;;;7325623;19;20189;-78
2023/09/12 01:57:42;;;;;;;37.50;23.27;;;22.20;99.90;;;;;;7301092;19;20177;-76
2023/09/12 02:00:14;;;;;;;43.30;28.00;;;22.30;99.90;;;;;;7295578;19;20181;-79
2023/09/12 02:02:40;;;;;;;49.97;31.57;;;22.40;99.90;;;;;;7299284;19;20185;-78
2023/09/12 02:05:22;;;;;;;54.17;30.90;;;22.40;99.90;;;;;;7302107;19;20170;-78
2023/09/12 02:07:53;;;;;;;48.50;30.90;;;22.50;99.90;;;;;;7279811;19;20209;-79
2023/09/12 02:10:19;;;;;;;51.97;32.17;;;22.30;99.90;;;;;;7297095;19;20181;-79
2023/09/12 02:12:47;;;;;;;48.13;31.07;;;22.40;99.90;;;;;;7300653;19;20727;-79
2023/09/12 02:15:13;;;;;;;45.40;30.23;;;22.40;99.90;;;;;;7316270;19;20717;-77
2023/09/12 02:17:40;;;;;;;45.23;29.77;;;22.40;99.90;;;;;;7300980;19;20205;-77
2023/09/12 02:20:14;;;;;;;47.10;30.77;;;22.40;99.90;;;;;;7295291;19;20655;-78
2023/09/12 02:22:41;;;;;;;46.60;30.17;;;22.40;99.90;;;;;;7295240;19;20185;-76
2023/09/12 02:25:09;;;;;;;46.03;30.20;;;22.40;99.90;;;;;;7285805;19;20223;-79
2023/09/12 02:27:35;;;;;;;47.17;31.03;;;22.40;99.90;;;;;;7288013;19;20186;-77
2023/09/12 02:30:02;;;;;;;46.70;29.93;;;22.50;99.90;;;;;;7297250;19;20314;-78
2023/09/12 02:32:32;;;;;;;50.07;31.23;;;22.50;99.90;;;;;;7300154;19;20206;-76
2023/09/12 02:35:02;;;;;;;44.67;30.80;;;22.50;99.90;;;;;;7300307;19;20192;-78
2023/09/12 02:37:29;;;;;;;45.03;29.83;;;22.60;99.90;;;;;;7296159;19;20684;-78
2023/09/12 02:39:55;;;;;;;44.70;29.67;;;22.60;99.90;;;;;;7299166;19;20214;-76
2023/09/12 02:42:29;;;;;;;48.60;30.37;;;22.50;99.90;;;;;;7305090;19;20228;-78
2023/09/12 02:44:59;;;;;;;47.87;30.57;;;22.50;99.90;;;;;;7274947;19;20247;-77
2023/09/12 02:47:31;;;;;;;43.60;28.00;;;22.40;99.90;;;;;;7296351;19;20193;-78
2023/09/12 02:50:04;;;;;;;50.37;30.10;;;22.30;99.90;;;;;;7307083;19;20188;-77
2023/09/12 02:52:33;;;;;;;47.10;30.30;;;22.40;99.90;;;;;;7299953;19;20675;-76
2023/09/12 02:55:01;;;;;;;44.90;28.93;;;22.50;99.90;;;;;;7292825;19;20192;-79
2023/09/12 02:57:43;;;;;;;43.70;28.70;;;22.60;99.90;;;;;;7302801;19;20217;-76
2023/09/12 03:00:13;;;;;;;45.27;28.60;;;22.50;99.90;;;;;;7303307;19;20185;-76
2023/09/12 03:02:40;;;;;;;41.17;27.43;;;22.60;99.90;;;;;;7303512;19;20192;-77
2023/09/12 03:05:09;;;;;;;40.07;26.00;;;22.60;99.90;;;;;;7301700;19;20188;-78
2023/09/12 03:07:37;;;;;;;41.47;27.33;;;22.50;99.90;;;;;;7302788;19;21336;-77
2023/09/12 03:10:03;;;;;;;42.43;26.60;;;22.50;99.90;;;;;;7292672;19;20189;-77
2023/09/12 03:12:29;;;;;;;40.43;26.07;;;22.40;99.90;;;;;;7273462;19;20201;-76
2023/09/12 03:14:57;;;;;;;40.90;25.67;;;22.50;99.90;;;;;;7302552;19;20192;-77
2023/09/12 03:17:29;;;;;;;37.33;24.57;;;22.50;99.90;;;;;;7302295;19;20817;-78
2023/09/12 03:19:57;;;;;;;38.00;25.37;;;22.50;99.90;;;;;;7303483;19;20261;-78
2023/09/12 03:22:25;;;;;;;39.27;25.27;;;22.60;99.90;;;;;;7302226;19;20184;-78
2023/09/12 03:24:51;;;;;;;38.27;25.07;;;22.60;99.90;;;;;;7298537;19;20184;-77
2023/09/12 03:27:17;;;;;;;34.37;23.37;;;22.70;99.90;;;;;;7304373;19;20205;-79
2023/09/12 03:29:49;;;;;;;39.87;24.30;;;22.60;99.90;;;;;;7325953;19;20184;-77
2023/09/12 03:32:18;;;;;;;39.23;24.93;;;22.60;99.90;;;;;;7264589;19;20211;-76
2023/09/12 03:34:45;;;;;;;37.10;24.50;;;22.60;99.90;;;;;;7326105;19;20193;-77
2023/09/12 03:37:11;;;;;;;36.13;23.30;;;22.70;99.90;;;;;;7266855;19;20205;-76
2023/09/12 03:39:39;;;;;;;39.83;24.90;;;22.60;99.90;;;;;;7303045;19;20232;-78
2023/09/12 03:42:07;;;;;;;38.20;23.80;;;22.60;99.90;;;;;;7293343;19;20208;-76
2023/09/12 03:44:35;;;;;;;36.20;25.10;;;22.50;99.90;;;;;;7302069;19;20189;-78
2023/09/12 03:47:02;;;;;;;34.63;23.23;;;22.10;99.90;;;;;;7303317;19;20185;-78
2023/09/12 03:49:29;;;;;;;42.47;24.63;;;21.70;99.90;;;;;;7294415;19;20181;-78
2023/09/12 03:51:57;;;;;;;35.80;23.90;;;21.50;99.90;;;;;;7298438;19;20189;-77
2023/09/12 03:54:31;;;;;;;36.30;23.87;;;21.50;99.90;;;;;;7300708;19;20192;-78
2023/09/12 03:56:57;;;;;;;36.43;23.60;;;21.40;99.90;;;;;;7299430;19;20195;-78
2023/09/12 03:59:24;;;;;;;37.80;25.33;;;21.20;99.90;;;;;;7298448;19;20188;-78
2023/09/12 04:01:51;;;;;;;43.90;26.43;;;21.30;99.90;;;;;;7301381;19;20180;-80
2023/09/12 04:04:18;;;;;;;38.97;24.93;;;21.50;99.90;;;;;;7317190;19;20185;-77
2023/09/12 04:06:48;;;;;;;34.53;23.07;;;21.60;99.90;;;;;;7296695;19;20241;-78
2023/09/12 04:09:16;;;;;;;37.43;24.67;;;21.70;99.90;;;;;;7299012;19;20202;-79
2023/09/12 04:11:56;;;;;;;38.47;25.90;;;21.70;99.90;;;;;;7293727;19;20188;-79
2023/09/12 04:14:24;;;;;;;41.50;27.00;;;21.70;99.90;;;;;;7299289;19;20224;-79
2023/09/12 04:16:52;;;;;;;41.03;26.73;;;21.80;99.90;;;;;;7300308;19;20185;-79
2023/09/12 04:19:18;;;;;;;42.40;27.10;;;21.80;99.90;;;;;;7297445;19;20185;-78
2023/09/12 04:21:45;;;;;;;43.77;26.27;;;21.80;99.90;;;;;;7323109;19;20312;-80
2023/09/12 04:24:15;;;;;;;40.33;26.03;;;21.70;99.90;;;;;;7302000;19;20204;-79
2023/09/12 04:26:43;;;;;;;41.43;26.10;;;21.60;99.90;;;;;;7302221;19;20258;-77
2023/09/12 04:29:11;;;;;;;39.60;25.43;;;21.60;99.90;;;;;;7306599;19;20195;-79
2023/09/12 04:31:38;;;;;;;41.77;24.87;;;21.60;99.90;;;;;;7304428;19;20193;-79
2023/09/12 04:34:05;;;;;;;39.90;26.03;;;21.50;99.90;;;;;;7300821;19;20203;-78
2023/09/12 04:36:39;;;;;;;41.70;26.70;;;21.60;99.90;;;;;;7299861;19;20561;-77
2023/09/12 04:39:05;;;;;;;40.63;27.13;;;21.70;99.90;;;;;;7297298;19;20225;-80
2023/09/12 04:41:33;;;;;;;40.27;26.20;;;21.70;99.90;;;;;;7294427;19;20189;-79
2023/09/12 04:44:00;;;;;;;42.07;25.63;;;21.80;99.90;;;;;;7287974;19;20192;-82
2023/09/12 04:46:27;;;;;;;38.20;24.30;;;21.80;99.90;;;;;;7284367;19;20184;-83
2023/09/12 04:48:53;;;;;;;40.83;25.87;;;21.80;99.90;;;;;;7281881;19;20188;-84
2023/09/12 04:51:19;;;;;;;40.10;26.23;;;21.80;99.90;;;;;;7281358;19;20189;-83
2023/09/12 04:53:45;;;;;;;40.07;25.07;;;21.70;99.90;;;;;;7298585;19;20198;-82
2023/09/12 04:56:11;;;;;;;38.20;24.40;;;21.70;99.90;;;;;;7300056;19;20189;-83
2023/09/12 04:58:38;;;;;;;39.77;24.30;;;21.60;99.90;;;;;;7276714;19;20589;-79
2023/09/12 05:01:04;;;;;;;39.33;24.50;;;21.60;99.90;;;;;;7277184;19;20194;-78
2023/09/12 05:03:30;;;;;;;40.50;25.10;;;21.50;99.90;;;;;;7278914;19;20205;-78
2023/09/12 05:05:56;;;;;;;44.03;25.53;;;21.50;99.90;;;;;;7279957;19;20643;-78
2023/09/12 05:08:23;;;;;;;42.13;24.83;;;21.50;99.90;;;;;;7278571;19;20193;-78
2023/09/12 05:10:49;;;;;;;42.43;24.60;;;21.50;99.90;;;;;;7279921;19;20201;-78
2023/09/12 05:13:15;;;;;;;39.93;24.33;;;21.30;99.90;;;;;;7293565;19;20204;-76
2023/09/12 05:15:41;;;;;;;41.50;25.47;;;21.30;99.90;;;;;;7294726;19;20792;-75
2023/09/12 05:18:07;;;;;;;38.50;24.60;;;21.30;99.90;;;;;;7276127;19;20259;-75
2023/09/12 05:20:33;;;;;;;46.57;24.13;;;21.30;99.90;;;;;;7285580;19;20266;-75
2023/09/12 05:22:59;;;;;;;40.27;24.03;;;21.30;99.90;;;;;;7285742;19;20200;-76
2023/09/12 05:25:26;;;;;;;44.53;26.03;;;21.30;99.90;;;;;;7284109;19;20974;-76
2023/09/12 05:27:52;;;;;;;44.20;25.97;;;21.30;99.90;;;;;;7283662;19;20192;-75
2023/09/12 05:30:18;;;;;;;46.27;25.97;;;21.20;99.90;;;;;;7286193;19;20181;-76
2023/09/12 05:32:44;;;;;;;46.33;26.63;;;21.20;99.90;;;;;;7306303;19;20184;-75
2023/09/12 05:35:10;;;;;;;44.27;25.90;;;21.30;99.90;;;;;;7286731;19;20173;-76
2023/09/12 05:37:36;;;;;;;45.03;24.43;;;21.30;99.90;;;;;;7286746;19;20193;-76
2023/09/12 05:40:03;;;;;;;40.63;24.33;;;21.30;99.90;;;;;;7284323;19;20252;-76
2023/09/12 05:42:29;;;;;;;41.87;26.00;;;21.30;99.90;;;;;;7284214;19;20811;-75
2023/09/12 05:44:56;;;;;;;42.23;25.97;;;21.40;99.90;;;;;;7285443;19;20284;-76
2023/09/12 05:47:22;;;;;;;38.53;23.80;;;21.50;99.90;;;;;;7286049;19;20185;-76
2023/09/12 05:49:48;;;;;;;41.10;24.27;;;21.60;99.90;;;;;;7287228;19;20181;-77
2023/09/12 05:52:14;;;;;;;40.97;23.20;;;21.60;99.90;;;;;;7309564;19;20188;-77
2023/09/12 05:54:41;;;;;;;36.63;22.13;;;21.60;99.90;;;;;;7285380;19;20196;-77
2023/09/12 05:57:07;;;;;;;35.20;21.10;;;21.80;99.90;;;;;;7285447;19;20184;-77
2023/09/12 05:59:37;;;;;;;34.67;21.20;;;21.90;99.90;;;;;;7285033;19;20188;-78
2023/09/12 06:02:04;;;;;;;35.53;20.50;;;22.10;99.90;;;;;;7284972;19;20189;-78
2023/09/12 06:04:29;;;;;;;31.10;20.63;;;22.20;99.90;;;;;;7282516;19;20188;-78
2023/09/12 06:06:55;;;;;;;34.70;21.60;;;22.40;99.90;;;;;;7286900;19;20189;-80
2023/09/12 06:09:21;;;;;;;30.57;19.17;;;22.60;99.90;;;;;;7285894;19;20698;-77
2023/09/12 06:11:47;;;;;;;32.87;21.07;;;22.60;99.90;;;;;;7287453;19;20188;-80
2023/09/12 06:14:12;;;;;;;31.17;20.40;;;22.70;99.90;;;;;;7310138;19;20314;-78
2023/09/12 06:16:38;;;;;;;30.93;19.30;;;22.70;99.90;;;;;;7285633;19;20212;-78
2023/09/12 06:19:04;;;;;;;31.93;19.27;;;22.80;99.90;;;;;;7286727;19;20268;-78
2023/09/12 06:21:29;;;;;;;36.90;21.90;;;22.90;99.90;;;;;;7285718;19;20189;-77
2023/09/12 06:24:11;;;;;;;35.90;21.63;;;23.00;99.90;;;;;;7284945;19;20662;-78
2023/09/12 06:26:37;;;;;;;36.60;24.53;;;23.20;99.90;;;;;;7283207;19;20671;-78
2023/09/12 06:29:03;;;;;;;38.75;24.15;;;23.40;99.90;;;;;;7285198;19;20211;-77
2023/09/12 06:31:29;;;;;;;40.00;25.57;;;23.60;99.90;;;;;;7287438;19;20648;-78
2023/09/12 06:33:55;;;;;;;41.30;25.63;;;23.80;99.90;;;;;;7286564;19;20223;-78
2023/09/12 06:36:23;;;;;;;39.17;23.43;;;24.00;99.90;;;;;;7285822;19;20679;-78
2023/09/12 06:38:50;;;;;;;38.30;24.17;;;24.30;99.90;;;;;;7284956;19;20189;-78
2023/09/12 06:41:19;;;;;;;38.70;22.65;;;24.70;99.90;;;;;;7290279;19;20230;-78
2023/09/12 06:43:45;;;;;;;34.08;21.77;;;25.40;99.90;;;;;;7302167;19;20300;-77
2023/09/12 06:46:13;;;;;;;30.35;21.63;;;25.80;99.90;;;;;;7300126;19;20189;-81
2023/09/12 06:48:39;;;;;;;34.33;20.70;;;25.80;99.90;;;;;;7285999;19;20195;-80
2023/09/12 06:51:06;;;;;;;35.88;21.77;;;25.70;99.90;;;;;;7286664;19;20190;-81
2023/09/12 06:53:32;;;;;;;32.13;22.23;;;25.70;99.90;;;;;;7284021;19;20200;-78
2023/09/12 06:55:58;;;;;;;31.60;22.75;;;25.60;99.90;;;;;;7284583;19;20196;-78
2023/09/12 06:58:25;;;;;;;35.17;23.55;;;25.50;99.90;;;;;;7282681;19;20526;-77
2023/09/12 07:00:51;;;;;;;36.92;22.17;;;25.40;99.90;;;;;;7284863;19;20207;-80
2023/09/12 07:03:18;;;;;;;36.50;23.63;;;25.40;99.90;;;;;;7286135;19;20754;-81
2023/09/12 07:05:45;;;;;;;36.78;23.63;;;25.40;99.90;;;;;;7304902;19;20192;-81
2023/09/12 07:08:11;;;;;;;36.38;23.85;;;25.30;99.90;;;;;;7283369;19;20207;-78
2023/09/12 07:10:37;;;;;;;34.45;21.95;;;25.20;99.90;;;;;;7281153;19;20197;-78
2023/09/12 07:13:03;;;;;;;35.45;22.48;;;25.10;99.90;;;;;;7281506;19;20640;-77
2023/09/12 07:15:29;;;;;;;30.83;21.88;;;25.10;99.90;;;;;;7282501;19;20193;-78
2023/09/12 07:17:56;;;;;;;32.33;21.75;;;25.20;99.90;;;;;;7284455;19;20203;-78
2023/09/12 07:20:22;;;;;;;33.78;21.45;;;25.70;99.90;;;;;;7285024;19;20201;-78
2023/09/12 07:22:48;;;;;;;33.80;21.98;;;26.00;99.90;;;;;;7284781;19;20297;-80
2023/09/12 07:25:14;;;;;;;29.85;19.38;;;26.30;99.90;;;;;;7306077;19;20189;-78
2023/09/12 07:27:40;;;;;;;30.60;20.77;;;26.50;99.90;;;;;;7283642;19;20824;-78
2023/09/12 07:30:07;;;;;;;30.80;19.52;;;26.70;99.90;;;;;;7285352;19;20190;-78
2023/09/12 07:32:32;;;;;;;30.17;21.17;;;26.70;99.90;;;;;;7284988;19;20539;-78
2023/09/12 07:34:59;;;;;;;29.90;20.85;;;26.70;99.90;;;;;;7284240;19;20192;-82
2023/09/12 07:37:24;;;;;;;28.17;19.95;;;26.80;99.90;;;;;;7286002;19;20210;-80
2023/09/12 07:39:50;;;;;;;28.98;19.90;;;27.80;99.90;;;;;;7283735;19;20184;-80
2023/09/12 07:42:20;;;;;;;27.55;18.42;;;29.20;99.90;;;;;;7289773;19;20217;-81
2023/09/12 07:44:46;;;;;;;27.88;17.67;;;30.90;99.90;;;;;;7297099;19;20209;-81
2023/09/12 07:47:11;;;;;;;28.48;18.13;;;31.90;99.90;;;;;;7302487;19;20300;-81
2023/09/12 07:49:37;;;;;;;24.98;16.77;;;32.40;99.90;;;;;;7284982;19;20268;-81
2023/09/12 07:52:03;;;;;;;28.05;16.85;;;33.50;99.90;;;;;;7285200;19;20185;-78
2023/09/12 07:54:30;;;;;;;24.42;16.55;;;33.90;99.90;;;;;;7283564;19;20260;-78
2023/09/12 07:56:56;;;;;;;23.55;14.93;;;34.40;99.90;;;;;;7282763;19;20211;-81
2023/09/12 07:59:22;;;;;;;21.83;14.35;;;34.60;99.90;;;;;;7284299;19;20196;-81
2023/09/12 08:01:48;;;;;;;22.60;13.60;;;35.10;99.90;;;;;;7283240;19;20204;-81
2023/09/12 08:04:14;;;;;;;22.88;14.45;;;35.80;99.90;;;;;;7307418;19;20192;-78
2023/09/12 08:06:41;;;;;;;22.30;15.88;;;36.10;99.90;;;;;;7286183;19;20192;-82
2023/09/12 08:09:08;;;;;;;20.63;15.60;;;35.80;99.90;;;;;;7282955;19;20182;-81
2023/09/12 08:11:33;;;;;;;24.88;16.27;;;34.90;99.90;;;;;;7281989;19;20200;-82
2023/09/12 08:13:59;;;;;;;23.00;16.55;;;33.90;99.90;;;;;;7283052;19;20218;-81
2023/09/12 08:16:25;;;;;;;27.80;18.05;;;33.80;99.90;;;;;;7284022;19;20184;-81
2023/09/12 08:18:51;;;;;;;22.30;15.13;;;34.10;99.90;;;;;;7284346;19;20289;-81
2023/09/12 08:21:17;;;;;;;27.23;17.10;;;33.80;99.90;;;;;;7284151;19;20314;-81
2023/09/12 08:23:43;;;;;;;25.70;17.50;;;33.30;99.90;;;;;;7305250;19;20197;-77
2023/09/12 08:26:15;;;;;;;26.38;17.63;;;33.10;99.90;;;;;;7282213;19;20181;-78
2023/09/12 08:28:41;;;;;;;29.73;18.00;;;33.10;99.90;;;;;;7283785;19;20655;-78
2023/09/12 08:31:06;;;;;;;30.23;18.60;;;32.70;99.90;;;;;;7282717;19;20283;-82
2023/09/12 08:33:33;;;;;;;27.38;18.27;;;32.70;99.90;;;;;;7282603;19;20549;-81
2023/09/12 08:35:58;;;;;;;26.92;18.23;;;33.10;99.90;;;;;;7282458;19;20213;-81
2023/09/12 08:38:24;;;;;;;26.92;17.77;;;33.60;99.90;;;;;;7283864;19;20181;-81
2023/09/12 08:40:51;;;;;;;25.85;17.52;;;33.80;99.90;;;;;;7283233;19;20647;-81
2023/09/12 08:43:17;;;;;;;26.48;18.00;;;34.80;99.90;;;;;;7285161;19;20539;-81
2023/09/12 08:45:44;;;;;;;23.52;16.35;;;36.10;99.90;;;;;;7306484;19;20181;-82
2023/09/12 08:48:11;;;;;;;25.05;17.58;;;37.30;99.90;;;;;;7282054;19;20193;-82
2023/09/12 08:50:38;;;;;;;24.75;16.98;;;38.40;98.20;;;;;;7283890;19;20200;-82
2023/09/12 08:53:04;;;;;;;25.90;17.95;;;39.50;96.10;;;;;;7283024;19;20216;-82
2023/09/12 08:55:33;;;;;;;28.23;20.00;;;40.20;92.00;;;;;;7289282;19;20201;-81
2023/09/12 08:58:02;;;;;;;28.73;19.08;;;39.70;90.50;;;;;;7290160;19;20189;-81
2023/09/12 09:00:29;;;;;;;25.38;17.85;;;38.40;91.40;;;;;;7304868;19;20210;-82
2023/09/12 09:02:55;;;;;;;28.60;19.38;;;37.20;92.80;;;;;;7305664;19;20196;-82
2023/09/12 09:05:23;;;;;;;30.85;21.00;;;37.20;93.20;;;;;;7297020;19;20205;-78
2023/09/12 09:07:49;;;;;;;31.15;21.25;;;37.50;93.00;;;;;;7296250;19;20195;-81
2023/09/12 09:10:18;;;;;;;27.90;19.40;;;37.50;92.50;;;;;;7318354;19;20192;-81
2023/09/12 09:12:46;;;;;;;32.28;20.50;;;37.90;92.20;;;;;;7317853;19;20184;-77
2023/09/12 09:15:28;;;;;;;31.40;19.60;;;38.30;92.50;;;;;;7414310;19;20170;-82
2023/09/12 09:18:10;;;;;;;30.92;20.77;;;38.70;91.60;;;;;;7416701;19;20138;-78
2023/09/12 09:20:37;;;;;;;34.65;23.30;;;37.30;91.50;;;;;;7414590;19;20162;-82
2023/09/12 09:23:11;;;;;;;36.45;23.92;;;36.00;92.90;;;;;;7415962;19;20145;-81
2023/09/12 09:25:51;;;;;;;34.42;21.98;;;34.60;93.80;;;;;;7414927;19;20154;-82
2023/09/12 09:28:19;;;;;;;31.40;19.15;;;33.50;96.10;;;;;;7399921;19;20160;-80
2023/09/12 09:30:51;;;;;;;31.20;19.52;;;32.70;97.60;;;;;;7304486;19;20204;-81
2023/09/12 09:33:18;;;;;;;35.72;20.73;;;32.30;98.50;;;;;;7274362;19;20194;-81
2023/09/12 09:35:49;;;;;;;33.50;20.75;;;32.10;99.90;;;;;;7327911;19;20248;-78
2023/09/12 09:38:18;;;;;;;33.30;20.13;;;31.60;99.90;;;;;;7305705;19;20357;-82
2023/09/12 09:40:46;;;;;;;34.78;21.27;;;31.50;99.90;;;;;;7304550;19;20226;-80
2023/09/12 09:43:22;;;;;;;34.50;21.02;;;31.10;99.90;;;;;;7301939;19;20196;-78
2023/09/12 09:45:56;;;;;;;30.42;20.15;;;30.90;99.90;;;;;;7203053;19;2004618;-78
2023/09/12 09:48:30;;;;;;;31.55;19.73;;;31.70;99.90;;;;;;7298729;19;20192;-78
2023/09/12 09:51:03;;;;;;;25.95;15.75;;;33.20;99.90;;;;;;7299940;19;20184;-81
2023/09/12 09:53:32;;;;;;;26.02;16.00;;;35.10;99.40;;;;;;7303171;19;20644;-81
2023/09/12 09:56:25;;;;;;;26.77;15.75;;;35.90;97.10;;;;;;7305732;19;20225;-79
2023/09/12 09:58:58;;;;;;;24.90;15.63;;;37.30;94.70;;;;;;7300852;19;20196;-81
2023/09/12 10:01:30;;;;;;;23.58;15.75;;;38.30;93.20;;;;;;7304096;19;20193;-78
2023/09/12 10:04:17;;;;;;;26.02;17.30;;;38.60;92.40;;;;;;7292180;19;20196;-82
2023/09/12 10:06:46;;;;;;;21.90;15.05;;;38.50;91.40;;;;;;7305152;19;20193;-82
2023/09/12 10:09:26;;;;;;;19.88;12.45;;;37.40;90.70;;;;;;7304909;19;20184;-79
2023/09/12 10:11:57;;;;;;;23.58;14.98;;;37.20;92.70;;;;;;7195352;19;2004520;-79
2023/09/12 10:14:39;;;;;;;22.42;14.43;;;37.40;92.00;;;;;;7293946;19;20192;-83
2023/09/12 10:17:06;;;;;;;21.70;13.60;;;38.50;91.30;;;;;;7292434;19;20225;-79
2023/09/12 10:19:52;;;;;;;19.02;12.55;;;38.10;92.20;;;;;;7302522;19;20200;-78
2023/09/12 10:22:24;;;;;;;17.35;11.43;;;37.50;91.50;;;;;;7284178;19;20221;-78
2023/09/12 10:24:53;;;;;;;17.77;10.55;;;37.80;90.30;;;;;;7301983;19;20207;-82
2023/09/12 10:27:21;;;;;;;17.55;9.95;;;37.20;91.60;;;;;;7318085;19;20185;-81
2023/09/12 10:29:52;;;;;;;16.48;10.60;;;36.40;91.30;;;;;;7312298;19;20208;-81
2023/09/12 10:32:20;;;;;;;19.08;10.05;;;35.20;92.30;;;;;;7262793;19;20220;-78
2023/09/12 10:34:57;;;;;;;17.77;10.73;;;34.50;93.60;;;;;;7282943;19;20212;-82
2023/09/12 10:37:35;;;;;;;17.45;9.95;;;34.10;95.60;;;;;;7277296;19;20221;-82
2023/09/12 10:40:20;;;;;;;16.08;9.63;;;33.70;95.00;;;;;;7295117;19;20193;-78
2023/09/12 10:42:48;;;;;;;14.77;9.25;;;33.00;95.60;;;;;;7305847;19;20199;-80
2023/09/12 10:45:18;;;;;;;15.80;10.02;;;32.80;96.90;;;;;;7319269;19;20189;-78
2023/09/12 10:47:46;;;;;;;20.00;10.05;;;32.90;97.40;;;;;;7277058;19;20667;-81
2023/09/12 10:50:20;;;;;;;17.55;9.90;;;34.00;97.90;;;;;;7301942;19;20200;-79
2023/09/12 10:52:48;;;;;;;17.27;9.55;;;35.50;96.90;;;;;;7224489;19;20185;-81
2023/09/12 10:55:18;;;;;;;14.13;8.70;;;36.70;93.80;;;;;;7323911;19;20197;-82
2023/09/12 10:58:02;;;;;;;15.05;8.70;;;37.10;93.30;;;;;;7299798;19;20192;-79
2023/09/12 11:00:32;;;;;;;12.57;7.03;;;36.40;93.80;;;;;;7166039;19;2004769;-82
2023/09/12 11:03:28;;;;;;;12.43;7.82;;;37.40;92.60;;;;;;7297872;19;20616;-78
2023/09/12 11:06:01;;;;;;;11.63;7.00;;;38.20;90.90;;;;;;7148135;19;2004629;-79
2023/09/12 11:08:35;;;;;;;11.15;6.28;;;38.80;89.40;;;;;;7321997;19;20220;-78
2023/09/12 11:11:21;;;;;;;14.02;7.72;;;38.60;87.40;;;;;;7305793;19;20203;-78
2023/09/12 11:14:05;;;;;;;15.02;7.95;;;37.30;90.10;;;;;;7219035;19;2004696;-78
2023/09/12 11:16:38;;;;;;;15.40;7.95;;;36.40;91.10;;;;;;7300650;19;20193;-82
2023/09/12 11:19:22;;;;;;;12.13;7.65;;;35.60;91.10;;;;;;7300890;19;20229;-78
2023/09/12 11:21:51;;;;;;;16.00;8.27;;;34.90;91.70;;;;;;7285144;19;20192;-82
2023/09/12 11:24:18;;;;;;;14.68;7.45;;;35.20;91.80;;;;;;7319059;19;20195;-80
2023/09/12 11:27:08;;;;;;;11.73;6.45;;;35.30;91.90;;;;;;7326558;19;20219;-78
2023/09/12 11:29:42;;;;;;;10.00;5.95;;;36.20;91.70;;;;;;7201099;19;2006797;-82
2023/09/12 11:32:10;;;;;;;11.05;5.50;;;37.40;90.50;;;;;;7295758;19;20230;-79
2023/09/12 11:34:43;;;;;;;11.18;5.88;;;38.20;88.60;;;;;;7303407;19;20192;-79
2023/09/12 11:37:26;;;;;;;10.60;5.57;;;37.90;86.30;;;;;;7302399;19;20184;-81
2023/09/12 11:39:53;;;;;;;7.95;4.88;;;38.00;88.40;;;;;;7285150;19;20189;-78
2023/09/12 11:42:22;;;;;;;7.15;4.72;;;38.50;89.20;;;;;;7273940;19;20201;-81
2023/09/12 11:44:57;;;;;;;10.27;5.68;;;39.00;86.50;;;;;;7325641;19;20643;-80
2023/09/12 11:47:25;;;;;;;9.15;4.78;;;39.70;84.40;;;;;;7293036;19;20181;-82
2023/09/12 11:49:53;;;;;;;9.63;4.82;;;39.70;81.40;;;;;;7298895;19;20492;-78
2023/09/12 11:52:23;;;;;;;8.18;4.78;;;40.00;84.20;;;;;;7299091;19;20197;-79
2023/09/12 11:54:51;;;;;;;8.55;5.50;;;40.20;80.40;;;;;;7299502;19;20184;-78
2023/09/12 11:57:22;;;;;;;9.80;5.28;;;40.50;78.50;;;;;;7304555;19;20202;-79
2023/09/12 11:59:52;;;;;;;7.95;4.65;;;41.20;78.10;;;;;;7290426;19;20201;-79
2023/09/12 12:02:18;;;;;;;12.15;6.03;;;41.60;78.50;;;;;;7303622;19;20199;-79
2023/09/12 12:04:46;;;;;;;8.48;4.80;;;41.30;73.40;;;;;;7260747;19;20188;-82
2023/09/12 12:07:12;;;;;;;10.45;4.47;;;41.80;76.60;;;;;;7293076;19;20181;-78
2023/09/12 12:09:45;;;;;;;8.52;4.63;;;42.10;73.90;;;;;;7298400;19;20295;-79
2023/09/12 12:12:14;;;;;;;9.07;4.80;;;41.90;72.60;;;;;;7261542;19;20207;-78
2023/09/12 12:14:41;;;;;;;10.43;4.82;;;40.80;72.10;;;;;;7299620;19;20270;-80
2023/09/12 12:17:11;;;;;;;9.77;5.22;;;38.90;76.70;;;;;;7297676;19;20194;-78
2023/09/12 12:19:39;;;;;;;8.38;4.53;;;38.10;77.30;;;;;;7298131;19;20208;-78
2023/09/12 12:22:09;;;;;;;9.40;5.13;;;37.70;79.40;;;;;;7289278;19;20214;-78
2023/09/12 12:24:40;;;;;;;9.63;5.03;;;38.00;81.00;;;;;;7300318;19;20205;-82
2023/09/12 12:27:08;;;;;;;11.95;5.65;;;36.90;80.00;;;;;;7298177;19;20196;-79
2023/09/12 12:29:39;;;;;;;10.15;4.75;;;35.60;84.00;;;;;;7305371;19;20217;-82
2023/09/12 12:32:06;;;;;;;9.68;4.93;;;34.60;85.70;;;;;;7294682;19;20645;-78
2023/09/12 12:34:31;;;;;;;13.38;5.47;;;34.00;87.50;;;;;;7288645;19;20188;-81
2023/09/12 12:36:58;;;;;;;13.07;5.65;;;33.20;90.50;;;;;;7290239;19;20184;-82
2023/09/12 12:39:24;;;;;;;12.85;5.22;;;32.90;91.10;;;;;;7290071;19;20195;-82